London, Kentucky
Current Conditions -  °F | °C
As of 8:53 AM on Saturday 22 Nov 2014 (Local Time) from KLOZ Reporting Station
Clear Clear  
Wind Chill: 37°   Ceiling: Unl
Heat Index: 37°   Visibility: 10mi
Dew Point: 22°   Wind: 0mph
Humidity: 54%   Direction: NA
Pressure: 30.38"   Gusts: NA
Location:  37.13°N, 84.08°W
Report Text: KLOZ 221353Z AUTO 00000KT 10SM CLR 03/M06 A3038 RMK AO2 SLP297 T00281056
Loading
Personal Weather Stations






























Interactive Weather Map New forecast layout! Learn more

10-Day Weather Forecast

Advertisements
Track Severe Weather on mobile